sensor_id;sensor_type;location;lat;lon;timestamp;P1;durP1;ratioP1;P2;durP2;ratioP2
23517;SDS011;11935;50.878;4.392;2023-02-15T00:01:10;69.93;;;36.47;;
23517;SDS011;11935;50.878;4.392;2023-02-15T00:03:37;68.60;;;34.72;;
23517;SDS011;11935;50.878;4.392;2023-02-15T00:06:03;64.30;;;36.25;;
23517;SDS011;11935;50.878;4.392;2023-02-15T00:08:30;68.13;;;36.30;;
23517;SDS011;11935;50.878;4.392;2023-02-15T00:11:03;69.43;;;35.28;;
23517;SDS011;11935;50.878;4.392;2023-02-15T00:13:30;67.22;;;34.60;;
23517;SDS011;11935;50.878;4.392;2023-02-15T00:16:00;60.22;;;33.75;;
23517;SDS011;11935;50.878;4.392;2023-02-15T00:18:26;68.15;;;35.35;;
23517;SDS011;11935;50.878;4.392;2023-02-15T00:20:52;67.18;;;36.10;;
23517;SDS011;11935;50.878;4.392;2023-02-15T00:23:18;65.63;;;37.40;;
23517;SDS011;11935;50.878;4.392;2023-02-15T00:25:44;74.22;;;41.72;;
23517;SDS011;11935;50.878;4.392;2023-02-15T00:28:10;65.32;;;37.10;;
23517;SDS011;11935;50.878;4.392;2023-02-15T00:30:36;70.10;;;38.70;;
23517;SDS011;11935;50.878;4.392;2023-02-15T00:33:02;67.05;;;36.40;;
23517;SDS011;11935;50.878;4.392;2023-02-15T00:35:28;70.80;;;39.75;;
23517;SDS011;11935;50.878;4.392;2023-02-15T00:37:55;75.57;;;39.03;;
23517;SDS011;11935;50.878;4.392;2023-02-15T00:40:21;80.80;;;40.35;;
23517;SDS011;11935;50.878;4.392;2023-02-15T00:42:47;79.68;;;40.90;;
23517;SDS011;11935;50.878;4.392;2023-02-15T00:45:14;71.00;;;38.85;;
23517;SDS011;11935;50.878;4.392;2023-02-15T00:47:40;78.15;;;39.92;;
23517;SDS011;11935;50.878;4.392;2023-02-15T00:50:06;73.70;;;40.40;;
23517;SDS011;11935;50.878;4.392;2023-02-15T00:52:32;72.78;;;37.80;;
23517;SDS011;11935;50.878;4.392;2023-02-15T00:54:58;82.45;;;40.33;;
23517;SDS011;11935;50.878;4.392;2023-02-15T00:57:24;71.57;;;40.03;;
23517;SDS011;11935;50.878;4.392;2023-02-15T00:59:50;74.47;;;39.97;;
23517;SDS011;11935;50.878;4.392;2023-02-15T01:02:16;72.80;;;38.33;;
23517;SDS011;11935;50.878;4.392;2023-02-15T01:04:42;69.63;;;36.83;;
23517;SDS011;11935;50.878;4.392;2023-02-15T01:07:08;72.25;;;38.88;;
23517;SDS011;11935;50.878;4.392;2023-02-15T01:09:35;72.63;;;38.85;;
23517;SDS011;11935;50.878;4.392;2023-02-15T01:12:01;73.25;;;38.92;;
23517;SDS011;11935;50.878;4.392;2023-02-15T01:14:27;76.18;;;39.65;;
23517;SDS011;11935;50.878;4.392;2023-02-15T01:16:53;68.22;;;37.53;;
23517;SDS011;11935;50.878;4.392;2023-02-15T01:19:19;77.72;;;38.53;;
23517;SDS011;11935;50.878;4.392;2023-02-15T01:21:45;70.90;;;37.85;;
23517;SDS011;11935;50.878;4.392;2023-02-15T01:24:12;71.28;;;37.72;;
23517;SDS011;11935;50.878;4.392;2023-02-15T01:26:38;76.95;;;39.58;;
23517;SDS011;11935;50.878;4.392;2023-02-15T01:29:04;75.45;;;38.20;;
23517;SDS011;11935;50.878;4.392;2023-02-15T01:31:30;71.45;;;39.22;;
23517;SDS011;11935;50.878;4.392;2023-02-15T01:33:56;63.70;;;38.67;;
23517;SDS011;11935;50.878;4.392;2023-02-15T01:36:22;68.93;;;39.97;;
23517;SDS011;11935;50.878;4.392;2023-02-15T01:38:48;71.85;;;39.67;;
23517;SDS011;11935;50.878;4.392;2023-02-15T01:41:15;68.93;;;41.25;;
23517;SDS011;11935;50.878;4.392;2023-02-15T01:43:58;74.05;;;39.17;;
23517;SDS011;11935;50.878;4.392;2023-02-15T01:49:00;75.75;;;40.58;;
23517;SDS011;11935;50.878;4.392;2023-02-15T01:51:27;69.78;;;39.13;;
23517;SDS011;11935;50.878;4.392;2023-02-15T01:53:57;71.82;;;39.55;;
23517;SDS011;11935;50.878;4.392;2023-02-15T01:56:26;70.55;;;40.55;;
23517;SDS011;11935;50.878;4.392;2023-02-15T01:58:53;70.82;;;39.83;;
23517;SDS011;11935;50.878;4.392;2023-02-15T02:01:22;69.68;;;40.17;;
23517;SDS011;11935;50.878;4.392;2023-02-15T02:06:27;66.70;;;39.13;;
23517;SDS011;11935;50.878;4.392;2023-02-15T02:08:54;68.22;;;39.47;;
23517;SDS011;11935;50.878;4.392;2023-02-15T02:11:20;72.00;;;40.15;;
23517;SDS011;11935;50.878;4.392;2023-02-15T02:13:46;61.30;;;35.58;;
23517;SDS011;11935;50.878;4.392;2023-02-15T02:16:15;71.18;;;38.20;;
23517;SDS011;11935;50.878;4.392;2023-02-15T02:34:30;52.58;;;29.50;;
23517;SDS011;11935;50.878;4.392;2023-02-15T02:39:48;61.78;;;32.30;;
23517;SDS011;11935;50.878;4.392;2023-02-15T02:42:28;61.25;;;33.08;;
23517;SDS011;11935;50.878;4.392;2023-02-15T02:49:58;49.28;;;27.73;;
23517;SDS011;11935;50.878;4.392;2023-02-15T02:52:35;49.22;;;28.73;;
23517;SDS011;11935;50.878;4.392;2023-02-15T02:55:03;53.90;;;28.10;;
23517;SDS011;11935;50.878;4.392;2023-02-15T02:57:30;51.78;;;28.52;;
23517;SDS011;11935;50.878;4.392;2023-02-15T02:59:56;50.17;;;28.17;;
23517;SDS011;11935;50.878;4.392;2023-02-15T03:02:25;49.42;;;28.55;;
23517;SDS011;11935;50.878;4.392;2023-02-15T03:04:54;48.22;;;27.35;;
23517;SDS011;11935;50.878;4.392;2023-02-15T03:07:28;50.38;;;28.92;;
23517;SDS011;11935;50.878;4.392;2023-02-15T03:09:56;50.35;;;28.52;;
23517;SDS011;11935;50.878;4.392;2023-02-15T03:12:24;45.65;;;26.63;;
23517;SDS011;11935;50.878;4.392;2023-02-15T03:14:54;49.35;;;26.60;;
23517;SDS011;11935;50.878;4.392;2023-02-15T03:17:22;52.25;;;28.75;;
23517;SDS011;11935;50.878;4.392;2023-02-15T03:19:49;51.17;;;28.17;;
23517;SDS011;11935;50.878;4.392;2023-02-15T03:22:34;48.67;;;27.52;;
23517;SDS011;11935;50.878;4.392;2023-02-15T03:25:06;48.40;;;27.63;;
23517;SDS011;11935;50.878;4.392;2023-02-15T03:27:39;50.15;;;28.17;;
23517;SDS011;11935;50.878;4.392;2023-02-15T03:30:06;48.33;;;27.98;;
23517;SDS011;11935;50.878;4.392;2023-02-15T03:32:33;47.28;;;27.27;;
23517;SDS011;11935;50.878;4.392;2023-02-15T03:35:00;50.05;;;28.40;;
23517;SDS011;11935;50.878;4.392;2023-02-15T03:37:28;50.28;;;28.55;;
23517;SDS011;11935;50.878;4.392;2023-02-15T03:39:58;46.40;;;27.88;;
23517;SDS011;11935;50.878;4.392;2023-02-15T03:42:45;48.70;;;28.52;;
23517;SDS011;11935;50.878;4.392;2023-02-15T03:45:15;50.88;;;29.30;;
23517;SDS011;11935;50.878;4.392;2023-02-15T03:47:44;49.15;;;28.90;;
23517;SDS011;11935;50.878;4.392;2023-02-15T03:53:00;51.83;;;28.40;;
23517;SDS011;11935;50.878;4.392;2023-02-15T03:55:28;53.75;;;27.23;;
23517;SDS011;11935;50.878;4.392;2023-02-15T03:57:54;50.63;;;27.35;;
23517;SDS011;11935;50.878;4.392;2023-02-15T04:00:40;47.45;;;28.40;;
23517;SDS011;11935;50.878;4.392;2023-02-15T04:03:33;48.33;;;26.55;;
23517;SDS011;11935;50.878;4.392;2023-02-15T04:06:02;51.65;;;28.40;;
23517;SDS011;11935;50.878;4.392;2023-02-15T04:08:28;45.67;;;27.73;;
23517;SDS011;11935;50.878;4.392;2023-02-15T04:11:15;52.53;;;26.83;;
23517;SDS011;11935;50.878;4.392;2023-02-15T04:13:41;48.60;;;28.05;;
23517;SDS011;11935;50.878;4.392;2023-02-15T04:16:07;48.40;;;28.25;;
23517;SDS011;11935;50.878;4.392;2023-02-15T04:18:34;51.78;;;27.48;;
23517;SDS011;11935;50.878;4.392;2023-02-15T04:21:20;48.45;;;27.50;;
23517;SDS011;11935;50.878;4.392;2023-02-15T04:24:05;53.70;;;29.10;;
23517;SDS011;11935;50.878;4.392;2023-02-15T04:26:50;49.42;;;27.65;;
23517;SDS011;11935;50.878;4.392;2023-02-15T04:29:20;59.60;;;27.95;;
23517;SDS011;11935;50.878;4.392;2023-02-15T04:31:46;54.00;;;28.23;;
23517;SDS011;11935;50.878;4.392;2023-02-15T04:34:12;47.38;;;28.80;;
23517;SDS011;11935;50.878;4.392;2023-02-15T04:36:39;52.92;;;29.48;;
23517;SDS011;11935;50.878;4.392;2023-02-15T04:39:05;54.70;;;29.58;;
23517;SDS011;11935;50.878;4.392;2023-02-15T04:41:32;54.70;;;31.13;;
23517;SDS011;11935;50.878;4.392;2023-02-15T04:43:58;54.85;;;28.90;;
23517;SDS011;11935;50.878;4.392;2023-02-15T04:46:25;53.60;;;30.60;;
23517;SDS011;11935;50.878;4.392;2023-02-15T04:48:51;51.28;;;28.35;;
23517;SDS011;11935;50.878;4.392;2023-02-15T04:51:17;49.88;;;28.30;;
23517;SDS011;11935;50.878;4.392;2023-02-15T04:53:43;49.05;;;28.55;;
23517;SDS011;11935;50.878;4.392;2023-02-15T04:56:09;51.70;;;29.00;;
23517;SDS011;11935;50.878;4.392;2023-02-15T04:58:35;50.83;;;28.58;;
23517;SDS011;11935;50.878;4.392;2023-02-15T05:01:05;55.15;;;28.48;;
23517;SDS011;11935;50.878;4.392;2023-02-15T05:03:31;52.78;;;28.85;;
23517;SDS011;11935;50.878;4.392;2023-02-15T05:05:57;51.38;;;29.45;;
23517;SDS011;11935;50.878;4.392;2023-02-15T05:08:24;53.78;;;32.08;;
23517;SDS011;11935;50.878;4.392;2023-02-15T05:10:50;47.78;;;29.20;;
23517;SDS011;11935;50.878;4.392;2023-02-15T05:13:16;49.65;;;28.35;;
23517;SDS011;11935;50.878;4.392;2023-02-15T05:15:46;54.75;;;29.38;;
23517;SDS011;11935;50.878;4.392;2023-02-15T05:18:12;51.42;;;27.73;;
23517;SDS011;11935;50.878;4.392;2023-02-15T05:20:38;59.08;;;30.67;;
23517;SDS011;11935;50.878;4.392;2023-02-15T05:23:04;53.42;;;29.90;;
23517;SDS011;11935;50.878;4.392;2023-02-15T05:25:31;55.60;;;30.70;;
23517;SDS011;11935;50.878;4.392;2023-02-15T05:28:15;57.60;;;31.02;;
23517;SDS011;11935;50.878;4.392;2023-02-15T05:30:44;55.15;;;30.17;;
23517;SDS011;11935;50.878;4.392;2023-02-15T05:33:10;50.80;;;27.65;;
23517;SDS011;11935;50.878;4.392;2023-02-15T05:35:36;48.38;;;27.15;;
23517;SDS011;11935;50.878;4.392;2023-02-15T05:38:02;55.38;;;30.23;;
23517;SDS011;11935;50.878;4.392;2023-02-15T05:40:28;58.33;;;30.67;;
23517;SDS011;11935;50.878;4.392;2023-02-15T05:42:55;54.15;;;30.38;;
23517;SDS011;11935;50.878;4.392;2023-02-15T05:45:22;49.25;;;30.55;;
23517;SDS011;11935;50.878;4.392;2023-02-15T05:47:48;51.55;;;29.63;;
23517;SDS011;11935;50.878;4.392;2023-02-15T05:50:14;59.28;;;32.67;;
23517;SDS011;11935;50.878;4.392;2023-02-15T05:52:40;60.63;;;30.25;;
23517;SDS011;11935;50.878;4.392;2023-02-15T05:55:06;59.92;;;30.83;;
23517;SDS011;11935;50.878;4.392;2023-02-15T05:57:33;56.63;;;31.65;;
23517;SDS011;11935;50.878;4.392;2023-02-15T05:59:59;58.70;;;33.50;;
23517;SDS011;11935;50.878;4.392;2023-02-15T06:02:26;53.75;;;29.95;;
23517;SDS011;11935;50.878;4.392;2023-02-15T06:04:52;60.60;;;31.83;;
23517;SDS011;11935;50.878;4.392;2023-02-15T06:07:18;54.92;;;30.60;;
23517;SDS011;11935;50.878;4.392;2023-02-15T06:09:44;55.15;;;31.38;;
23517;SDS011;11935;50.878;4.392;2023-02-15T06:12:10;61.53;;;31.08;;
23517;SDS011;11935;50.878;4.392;2023-02-15T06:14:36;54.78;;;31.52;;
23517;SDS011;11935;50.878;4.392;2023-02-15T06:17:02;61.25;;;32.78;;
23517;SDS011;11935;50.878;4.392;2023-02-15T06:19:28;58.90;;;32.00;;
23517;SDS011;11935;50.878;4.392;2023-02-15T06:21:54;57.25;;;31.70;;
23517;SDS011;11935;50.878;4.392;2023-02-15T06:24:20;55.30;;;32.65;;
23517;SDS011;11935;50.878;4.392;2023-02-15T06:26:46;65.55;;;33.33;;
23517;SDS011;11935;50.878;4.392;2023-02-15T06:29:12;67.55;;;34.30;;
23517;SDS011;11935;50.878;4.392;2023-02-15T06:31:38;59.50;;;33.08;;
23517;SDS011;11935;50.878;4.392;2023-02-15T06:34:04;60.13;;;34.10;;
23517;SDS011;11935;50.878;4.392;2023-02-15T06:36:30;61.97;;;33.13;;
23517;SDS011;11935;50.878;4.392;2023-02-15T06:38:57;60.97;;;33.40;;
23517;SDS011;11935;50.878;4.392;2023-02-15T06:41:23;66.57;;;34.70;;
23517;SDS011;11935;50.878;4.392;2023-02-15T06:43:49;73.20;;;35.33;;
23517;SDS011;11935;50.878;4.392;2023-02-15T06:46:15;65.38;;;35.97;;
23517;SDS011;11935;50.878;4.392;2023-02-15T06:48:41;62.13;;;35.28;;
23517;SDS011;11935;50.878;4.392;2023-02-15T06:51:07;63.65;;;33.95;;
23517;SDS011;11935;50.878;4.392;2023-02-15T06:53:34;66.88;;;34.75;;
23517;SDS011;11935;50.878;4.392;2023-02-15T06:56:06;62.08;;;34.25;;
23517;SDS011;11935;50.878;4.392;2023-02-15T06:58:34;65.43;;;35.20;;
23517;SDS011;11935;50.878;4.392;2023-02-15T07:01:01;62.65;;;35.25;;
23517;SDS011;11935;50.878;4.392;2023-02-15T07:03:27;61.70;;;34.65;;
23517;SDS011;11935;50.878;4.392;2023-02-15T07:05:56;64.15;;;33.95;;
23517;SDS011;11935;50.878;4.392;2023-02-15T07:08:23;57.15;;;32.92;;
23517;SDS011;11935;50.878;4.392;2023-02-15T07:10:49;63.03;;;34.20;;
23517;SDS011;11935;50.878;4.392;2023-02-15T07:13:15;74.78;;;36.53;;
23517;SDS011;11935;50.878;4.392;2023-02-15T07:15:42;78.45;;;34.97;;
23517;SDS011;11935;50.878;4.392;2023-02-15T07:18:08;87.30;;;37.65;;
23517;SDS011;11935;50.878;4.392;2023-02-15T07:20:36;68.82;;;34.45;;
23517;SDS011;11935;50.878;4.392;2023-02-15T07:23:02;71.25;;;36.28;;
23517;SDS011;11935;50.878;4.392;2023-02-15T07:25:28;74.43;;;34.35;;
23517;SDS011;11935;50.878;4.392;2023-02-15T07:27:58;75.43;;;35.95;;
23517;SDS011;11935;50.878;4.392;2023-02-15T07:30:24;71.47;;;35.15;;
23517;SDS011;11935;50.878;4.392;2023-02-15T07:32:50;80.30;;;35.53;;
23517;SDS011;11935;50.878;4.392;2023-02-15T07:35:35;69.35;;;34.95;;
23517;SDS011;11935;50.878;4.392;2023-02-15T07:38:01;56.17;;;31.48;;
23517;SDS011;11935;50.878;4.392;2023-02-15T07:40:27;61.17;;;32.88;;
23517;SDS011;11935;50.878;4.392;2023-02-15T07:42:53;64.40;;;33.25;;
23517;SDS011;11935;50.878;4.392;2023-02-15T07:45:20;68.03;;;34.45;;
23517;SDS011;11935;50.878;4.392;2023-02-15T07:47:46;59.58;;;33.55;;
23517;SDS011;11935;50.878;4.392;2023-02-15T07:50:12;64.47;;;32.55;;
23517;SDS011;11935;50.878;4.392;2023-02-15T07:52:38;65.07;;;33.53;;
23517;SDS011;11935;50.878;4.392;2023-02-15T07:55:04;67.25;;;33.95;;
23517;SDS011;11935;50.878;4.392;2023-02-15T07:57:30;67.30;;;32.70;;
23517;SDS011;11935;50.878;4.392;2023-02-15T07:59:56;73.30;;;33.97;;
23517;SDS011;11935;50.878;4.392;2023-02-15T08:02:24;83.15;;;34.35;;
23517;SDS011;11935;50.878;4.392;2023-02-15T08:04:50;81.32;;;34.45;;
23517;SDS011;11935;50.878;4.392;2023-02-15T08:07:16;78.15;;;34.80;;
23517;SDS011;11935;50.878;4.392;2023-02-15T08:09:42;84.85;;;35.83;;
23517;SDS011;11935;50.878;4.392;2023-02-15T08:12:08;82.75;;;35.40;;
23517;SDS011;11935;50.878;4.392;2023-02-15T08:14:34;79.53;;;35.75;;
23517;SDS011;11935;50.878;4.392;2023-02-15T08:17:00;81.82;;;36.33;;
23517;SDS011;11935;50.878;4.392;2023-02-15T08:19:30;65.82;;;35.10;;
23517;SDS011;11935;50.878;4.392;2023-02-15T08:22:04;73.55;;;36.15;;
23517;SDS011;11935;50.878;4.392;2023-02-15T08:24:34;77.78;;;34.83;;
23517;SDS011;11935;50.878;4.392;2023-02-15T08:27:04;73.18;;;34.65;;
23517;SDS011;11935;50.878;4.392;2023-02-15T08:29:31;66.20;;;34.00;;
23517;SDS011;11935;50.878;4.392;2023-02-15T08:32:08;71.47;;;33.72;;
23517;SDS011;11935;50.878;4.392;2023-02-15T08:34:35;66.30;;;33.90;;
23517;SDS011;11935;50.878;4.392;2023-02-15T08:37:02;70.10;;;33.35;;
23517;SDS011;11935;50.878;4.392;2023-02-15T08:39:28;64.93;;;33.35;;
23517;SDS011;11935;50.878;4.392;2023-02-15T08:41:54;67.15;;;34.13;;
23517;SDS011;11935;50.878;4.392;2023-02-15T08:44:20;67.78;;;33.60;;
23517;SDS011;11935;50.878;4.392;2023-02-15T08:46:47;60.30;;;32.67;;
23517;SDS011;11935;50.878;4.392;2023-02-15T08:49:18;59.50;;;32.72;;
23517;SDS011;11935;50.878;4.392;2023-02-15T08:51:44;64.78;;;32.08;;
23517;SDS011;11935;50.878;4.392;2023-02-15T08:54:12;66.50;;;33.03;;
23517;SDS011;11935;50.878;4.392;2023-02-15T08:56:39;65.20;;;33.47;;
23517;SDS011;11935;50.878;4.392;2023-02-15T08:59:06;70.43;;;32.40;;
23517;SDS011;11935;50.878;4.392;2023-02-15T09:01:33;60.17;;;32.60;;
23517;SDS011;11935;50.878;4.392;2023-02-15T09:04:04;61.95;;;31.20;;
23517;SDS011;11935;50.878;4.392;2023-02-15T09:06:30;58.92;;;31.83;;
23517;SDS011;11935;50.878;4.392;2023-02-15T09:08:56;61.08;;;31.75;;
23517;SDS011;11935;50.878;4.392;2023-02-15T09:11:26;63.17;;;32.25;;
23517;SDS011;11935;50.878;4.392;2023-02-15T09:13:54;59.78;;;30.98;;
23517;SDS011;11935;50.878;4.392;2023-02-15T09:16:21;52.67;;;29.43;;
23517;SDS011;11935;50.878;4.392;2023-02-15T09:18:47;60.88;;;28.30;;
23517;SDS011;11935;50.878;4.392;2023-02-15T09:21:16;56.95;;;28.42;;
23517;SDS011;11935;50.878;4.392;2023-02-15T09:23:43;48.57;;;25.90;;
23517;SDS011;11935;50.878;4.392;2023-02-15T09:26:10;50.42;;;25.50;;
23517;SDS011;11935;50.878;4.392;2023-02-15T09:28:37;47.80;;;23.50;;
23517;SDS011;11935;50.878;4.392;2023-02-15T09:31:07;50.83;;;25.02;;
23517;SDS011;11935;50.878;4.392;2023-02-15T09:33:34;47.67;;;23.63;;
23517;SDS011;11935;50.878;4.392;2023-02-15T09:36:00;40.40;;;22.90;;
23517;SDS011;11935;50.878;4.392;2023-02-15T09:38:26;45.08;;;21.83;;
23517;SDS011;11935;50.878;4.392;2023-02-15T09:41:00;44.67;;;22.30;;
23517;SDS011;11935;50.878;4.392;2023-02-15T09:49:02;60.67;;;23.95;;
23517;SDS011;11935;50.878;4.392;2023-02-15T09:54:04;43.65;;;22.02;;
23517;SDS011;11935;50.878;4.392;2023-02-15T09:56:39;42.97;;;22.75;;
23517;SDS011;11935;50.878;4.392;2023-02-15T10:27:45;36.92;;;21.33;;
23517;SDS011;11935;50.878;4.392;2023-02-15T10:30:12;38.35;;;21.20;;
23517;SDS011;11935;50.878;4.392;2023-02-15T10:32:41;40.33;;;22.05;;
23517;SDS011;11935;50.878;4.392;2023-02-15T10:35:18;37.85;;;21.38;;
23517;SDS011;11935;50.878;4.392;2023-02-15T10:38:00;41.70;;;21.15;;
23517;SDS011;11935;50.878;4.392;2023-02-15T10:45:31;40.03;;;22.25;;
23517;SDS011;11935;50.878;4.392;2023-02-15T10:48:08;32.85;;;18.60;;
23517;SDS011;11935;50.878;4.392;2023-02-15T11:01:21;43.03;;;21.08;;
23517;SDS011;11935;50.878;4.392;2023-02-15T11:06:19;43.03;;;21.98;;
23517;SDS011;11935;50.878;4.392;2023-02-15T11:08:46;38.30;;;21.05;;
23517;SDS011;11935;50.878;4.392;2023-02-15T11:11:15;39.07;;;20.53;;
23517;SDS011;11935;50.878;4.392;2023-02-15T11:13:44;39.95;;;21.40;;
23517;SDS011;11935;50.878;4.392;2023-02-15T11:16:15;38.72;;;20.70;;
23517;SDS011;11935;50.878;4.392;2023-02-15T11:18:48;37.70;;;21.23;;
23517;SDS011;11935;50.878;4.392;2023-02-15T11:21:20;35.22;;;20.80;;
23517;SDS011;11935;50.878;4.392;2023-02-15T11:23:48;36.88;;;21.13;;
23517;SDS011;11935;50.878;4.392;2023-02-15T11:28:45;37.25;;;22.00;;
23517;SDS011;11935;50.878;4.392;2023-02-15T11:31:15;39.97;;;21.70;;
23517;SDS011;11935;50.878;4.392;2023-02-15T11:33:44;37.35;;;22.50;;
23517;SDS011;11935;50.878;4.392;2023-02-15T11:36:13;39.42;;;22.20;;
23517;SDS011;11935;50.878;4.392;2023-02-15T11:38:42;40.38;;;21.73;;
23517;SDS011;11935;50.878;4.392;2023-02-15T11:41:13;40.13;;;23.15;;
23517;SDS011;11935;50.878;4.392;2023-02-15T11:43:46;39.55;;;21.98;;
23517;SDS011;11935;50.878;4.392;2023-02-15T11:46:15;41.90;;;22.60;;
23517;SDS011;11935;50.878;4.392;2023-02-15T11:48:43;41.35;;;22.13;;
23517;SDS011;11935;50.878;4.392;2023-02-15T11:51:19;44.28;;;23.35;;
23517;SDS011;11935;50.878;4.392;2023-02-15T11:53:46;39.90;;;21.65;;
23517;SDS011;11935;50.878;4.392;2023-02-15T11:56:16;42.22;;;23.00;;
23517;SDS011;11935;50.878;4.392;2023-02-15T11:58:44;39.80;;;23.73;;
23517;SDS011;11935;50.878;4.392;2023-02-15T12:03:43;44.13;;;23.83;;
23517;SDS011;11935;50.878;4.392;2023-02-15T12:06:30;37.35;;;22.00;;
23517;SDS011;11935;50.878;4.392;2023-02-15T12:09:14;45.35;;;24.45;;
23517;SDS011;11935;50.878;4.392;2023-02-15T12:11:44;43.58;;;24.38;;
23517;SDS011;11935;50.878;4.392;2023-02-15T12:14:11;36.00;;;22.63;;
23517;SDS011;11935;50.878;4.392;2023-02-15T12:16:48;41.33;;;24.27;;
23517;SDS011;11935;50.878;4.392;2023-02-15T12:19:36;45.10;;;23.63;;
23517;SDS011;11935;50.878;4.392;2023-02-15T12:22:04;40.97;;;24.45;;
23517;SDS011;11935;50.878;4.392;2023-02-15T12:24:36;44.88;;;24.80;;
23517;SDS011;11935;50.878;4.392;2023-02-15T12:27:04;43.15;;;25.33;;
23517;SDS011;11935;50.878;4.392;2023-02-15T12:29:41;47.95;;;25.90;;
23517;SDS011;11935;50.878;4.392;2023-02-15T12:32:15;45.47;;;25.70;;
23517;SDS011;11935;50.878;4.392;2023-02-15T12:34:43;46.17;;;26.85;;
23517;SDS011;11935;50.878;4.392;2023-02-15T12:39:56;51.05;;;26.23;;
23517;SDS011;11935;50.878;4.392;2023-02-15T12:42:22;43.60;;;24.73;;
23517;SDS011;11935;50.878;4.392;2023-02-15T12:45:02;48.13;;;25.38;;
23517;SDS011;11935;50.878;4.392;2023-02-15T12:47:29;43.05;;;24.92;;
23517;SDS011;11935;50.878;4.392;2023-02-15T12:50:08;44.83;;;25.02;;
23517;SDS011;11935;50.878;4.392;2023-02-15T12:52:41;49.75;;;27.20;;
23517;SDS011;11935;50.878;4.392;2023-02-15T12:55:21;40.50;;;25.13;;
23517;SDS011;11935;50.878;4.392;2023-02-15T12:57:49;48.60;;;25.85;;
23517;SDS011;11935;50.878;4.392;2023-02-15T13:00:30;41.92;;;28.00;;
23517;SDS011;11935;50.878;4.392;2023-02-15T13:02:57;46.65;;;26.55;;
23517;SDS011;11935;50.878;4.392;2023-02-15T13:07:53;48.00;;;26.73;;
23517;SDS011;11935;50.878;4.392;2023-02-15T13:12:49;43.00;;;25.92;;
23517;SDS011;11935;50.878;4.392;2023-02-15T13:15:27;40.38;;;27.05;;
23517;SDS011;11935;50.878;4.392;2023-02-15T13:17:55;42.40;;;26.10;;
23517;SDS011;11935;50.878;4.392;2023-02-15T13:20:21;42.92;;;26.95;;
23517;SDS011;11935;50.878;4.392;2023-02-15T13:22:49;36.53;;;24.08;;
23517;SDS011;11935;50.878;4.392;2023-02-15T13:25:21;40.88;;;26.10;;
23517;SDS011;11935;50.878;4.392;2023-02-15T13:27:52;43.72;;;25.27;;
23517;SDS011;11935;50.878;4.392;2023-02-15T13:32:44;43.88;;;27.98;;
23517;SDS011;11935;50.878;4.392;2023-02-15T13:35:15;43.03;;;26.00;;
23517;SDS011;11935;50.878;4.392;2023-02-15T13:43:05;46.72;;;26.05;;
23517;SDS011;11935;50.878;4.392;2023-02-15T14:01:08;39.20;;;25.85;;
23517;SDS011;11935;50.878;4.392;2023-02-15T14:03:40;42.97;;;25.40;;
23517;SDS011;11935;50.878;4.392;2023-02-15T14:06:24;41.05;;;25.23;;
23517;SDS011;11935;50.878;4.392;2023-02-15T14:11:38;49.53;;;26.90;;
23517;SDS011;11935;50.878;4.392;2023-02-15T14:27:39;44.92;;;27.60;;
23517;SDS011;11935;50.878;4.392;2023-02-15T14:30:27;44.53;;;27.50;;
23517;SDS011;11935;50.878;4.392;2023-02-15T14:32:55;49.00;;;28.75;;
23517;SDS011;11935;50.878;4.392;2023-02-15T14:35:27;50.53;;;29.60;;
23517;SDS011;11935;50.878;4.392;2023-02-15T14:43:31;49.50;;;30.85;;
23517;SDS011;11935;50.878;4.392;2023-02-15T14:49:15;51.53;;;29.48;;
23517;SDS011;11935;50.878;4.392;2023-02-15T14:54:54;50.97;;;30.65;;
23517;SDS011;11935;50.878;4.392;2023-02-15T14:59:24;49.63;;;30.27;;
23517;SDS011;11935;50.878;4.392;2023-02-15T15:01:57;50.40;;;31.25;;
23517;SDS011;11935;50.878;4.392;2023-02-15T15:04:29;52.35;;;30.48;;
23517;SDS011;11935;50.878;4.392;2023-02-15T15:06:59;49.22;;;30.38;;
23517;SDS011;11935;50.878;4.392;2023-02-15T15:09:33;50.20;;;30.83;;
23517;SDS011;11935;50.878;4.392;2023-02-15T15:14:40;51.83;;;30.27;;
23517;SDS011;11935;50.878;4.392;2023-02-15T15:17:08;56.50;;;31.50;;
23517;SDS011;11935;50.878;4.392;2023-02-15T15:19:57;53.50;;;31.08;;
23517;SDS011;11935;50.878;4.392;2023-02-15T15:22:22;54.53;;;30.90;;
23517;SDS011;11935;50.878;4.392;2023-02-15T15:24:56;60.25;;;32.67;;
23517;SDS011;11935;50.878;4.392;2023-02-15T15:35:33;56.03;;;33.65;;
23517;SDS011;11935;50.878;4.392;2023-02-15T15:51:18;51.70;;;29.80;;
23517;SDS011;11935;50.878;4.392;2023-02-15T15:53:47;60.38;;;33.17;;
23517;SDS011;11935;50.878;4.392;2023-02-15T15:56:19;49.08;;;30.60;;
23517;SDS011;11935;50.878;4.392;2023-02-15T15:58:48;52.83;;;31.33;;
23517;SDS011;11935;50.878;4.392;2023-02-15T16:01:15;51.05;;;30.75;;
23517;SDS011;11935;50.878;4.392;2023-02-15T16:03:49;54.30;;;31.67;;
23517;SDS011;11935;50.878;4.392;2023-02-15T16:08:54;54.55;;;31.20;;
23517;SDS011;11935;50.878;4.392;2023-02-15T16:11:24;49.17;;;28.05;;
23517;SDS011;11935;50.878;4.392;2023-02-15T16:13:50;50.92;;;30.88;;
23517;SDS011;11935;50.878;4.392;2023-02-15T16:16:22;56.67;;;30.20;;
23517;SDS011;11935;50.878;4.392;2023-02-15T16:18:49;50.63;;;30.00;;
23517;SDS011;11935;50.878;4.392;2023-02-15T16:21:17;51.50;;;27.20;;
23517;SDS011;11935;50.878;4.392;2023-02-15T16:24:03;50.35;;;28.88;;
23517;SDS011;11935;50.878;4.392;2023-02-15T16:29:18;51.28;;;30.60;;
23517;SDS011;11935;50.878;4.392;2023-02-15T16:32:00;54.50;;;29.45;;
23517;SDS011;11935;50.878;4.392;2023-02-15T16:34:27;54.55;;;30.95;;
23517;SDS011;11935;50.878;4.392;2023-02-15T16:37:16;51.40;;;30.23;;
23517;SDS011;11935;50.878;4.392;2023-02-15T16:39:43;59.15;;;30.58;;
23517;SDS011;11935;50.878;4.392;2023-02-15T16:42:10;57.08;;;29.85;;
23517;SDS011;11935;50.878;4.392;2023-02-15T16:44:38;55.50;;;31.33;;
23517;SDS011;11935;50.878;4.392;2023-02-15T16:47:05;57.55;;;30.02;;
23517;SDS011;11935;50.878;4.392;2023-02-15T16:49:36;57.38;;;30.42;;
23517;SDS011;11935;50.878;4.392;2023-02-15T16:52:05;52.60;;;30.00;;
23517;SDS011;11935;50.878;4.392;2023-02-15T16:54:32;51.42;;;30.08;;
23517;SDS011;11935;50.878;4.392;2023-02-15T16:56:59;53.72;;;31.92;;
23517;SDS011;11935;50.878;4.392;2023-02-15T16:59:35;54.65;;;30.50;;
23517;SDS011;11935;50.878;4.392;2023-02-15T17:02:12;54.20;;;29.40;;
23517;SDS011;11935;50.878;4.392;2023-02-15T17:04:39;55.15;;;31.30;;
23517;SDS011;11935;50.878;4.392;2023-02-15T17:07:16;56.80;;;32.70;;
23517;SDS011;11935;50.878;4.392;2023-02-15T17:09:53;61.63;;;28.83;;
23517;SDS011;11935;50.878;4.392;2023-02-15T17:15:04;58.00;;;32.70;;
23517;SDS011;11935;50.878;4.392;2023-02-15T17:17:31;57.03;;;30.35;;
23517;SDS011;11935;50.878;4.392;2023-02-15T17:19:57;57.55;;;33.97;;
23517;SDS011;11935;50.878;4.392;2023-02-15T17:22:24;63.42;;;33.08;;
23517;SDS011;11935;50.878;4.392;2023-02-15T17:27:21;57.20;;;33.33;;
23517;SDS011;11935;50.878;4.392;2023-02-15T17:29:55;51.42;;;30.27;;
23517;SDS011;11935;50.878;4.392;2023-02-15T17:32:23;62.88;;;35.22;;
23517;SDS011;11935;50.878;4.392;2023-02-15T17:37:25;55.45;;;32.00;;
23517;SDS011;11935;50.878;4.392;2023-02-15T17:39:52;52.92;;;30.50;;
23517;SDS011;11935;50.878;4.392;2023-02-15T17:42:18;56.20;;;31.25;;